Time;durP1;ratioP1;P1;durP2;ratioP2;P2;SDS_P1;SDS_P2;PMS_P1;PMS_P2;Temp;Humidity;BMP_temperature;BMP_pressure;BME280_temperature;BME280_humidity;BME280_pressure;Samples;Min_cycle;Max_cycle;Signal;HPM_P1;HPM_P2
2024/01/17 00:04:46;;;;;;;0.30;0.30;;;0.20;89.90;;;;;;10463134;28;20225;-78
2024/01/17 00:09:50;;;;;;;0.30;0.30;;;0.20;90.20;;;;;;10465541;28;20270;-80
2024/01/17 00:14:53;;;;;;;0.30;0.30;;;0.30;89.90;;;;;;10463355;28;20213;-80
2024/01/17 00:19:55;;;;;;;0.30;0.30;;;0.30;89.90;;;;;;10463634;28;20254;-80
2024/01/17 00:24:59;;;;;;;0.30;0.30;;;0.30;89.80;;;;;;10469356;28;20620;-78
2024/01/17 00:30:02;;;;;;;0.30;0.30;;;0.20;89.80;;;;;;10462595;28;20247;-78
2024/01/17 00:35:05;;;;;;;0.30;0.30;;;0.20;90.10;;;;;;10459194;28;20221;-79
2024/01/17 00:40:10;;;;;;;0.40;0.40;;;0.20;90.00;;;;;;10462696;28;20216;-79
2024/01/17 00:45:13;;;;;;;0.23;0.23;;;0.20;90.10;;;;;;10462290;28;20639;-79
2024/01/17 00:50:18;;;;;;;0.30;0.30;;;0.20;90.20;;;;;;10470122;28;20238;-78
2024/01/17 00:55:21;;;;;;;0.20;0.20;;;0.30;90.10;;;;;;10476361;28;20216;-79
2024/01/17 01:00:25;;;;;;;0.30;0.30;;;0.30;90.00;;;;;;10471026;28;20201;-78
2024/01/17 01:05:28;;;;;;;0.20;0.20;;;0.40;89.70;;;;;;10467279;28;20310;-77
2024/01/17 01:10:32;;;;;;;0.27;0.27;;;0.40;89.20;;;;;;10467929;28;20200;-79
2024/01/17 01:15:34;;;;;;;0.30;0.30;;;0.40;89.50;;;;;;10469603;28;20286;-79
2024/01/17 01:20:37;;;;;;;0.30;0.30;;;0.50;90.20;;;;;;10471093;28;20239;-77
2024/01/17 01:25:40;;;;;;;0.30;0.30;;;0.50;90.00;;;;;;10469409;28;20278;-80
2024/01/17 01:30:43;;;;;;;0.30;0.30;;;0.60;90.20;;;;;;10444938;28;20225;-80
2024/01/17 01:35:45;;;;;;;0.30;0.30;;;0.70;90.30;;;;;;10472024;28;20694;-79
2024/01/17 01:40:49;;;;;;;0.30;0.30;;;0.80;90.40;;;;;;10473948;28;20193;-77
2024/01/17 01:46:13;;;;;;;0.23;0.23;;;0.90;89.90;;;;;;10463303;28;20251;-79
2024/01/17 01:51:16;;;;;;;0.30;0.30;;;0.90;89.30;;;;;;10464347;28;20736;-79
2024/01/17 01:56:23;;;;;;;0.30;0.30;;;0.90;89.00;;;;;;10463031;28;20686;-80
2024/01/17 02:01:27;;;;;;;0.20;0.20;;;0.90;89.00;;;;;;10462470;28;20196;-79
2024/01/17 02:06:31;;;;;;;0.30;0.30;;;0.90;89.60;;;;;;10453722;28;20236;-78
2024/01/17 02:11:36;;;;;;;0.30;0.30;;;0.90;89.60;;;;;;10456129;28;20197;-78
2024/01/17 02:16:39;;;;;;;0.30;0.30;;;1.00;89.50;;;;;;10463049;28;20209;-79
2024/01/17 02:21:42;;;;;;;0.30;0.30;;;1.00;89.10;;;;;;10466856;28;20201;-79
2024/01/17 02:26:45;;;;;;;0.30;0.30;;;1.10;89.40;;;;;;10466257;28;20290;-78
2024/01/17 02:31:49;;;;;;;0.30;0.30;;;1.10;90.00;;;;;;10463507;28;20533;-80
2024/01/17 02:36:51;;;;;;;0.40;0.40;;;1.20;89.90;;;;;;10464670;28;20267;-80
2024/01/17 02:41:55;;;;;;;0.30;0.30;;;1.20;89.80;;;;;;10467693;28;20563;-80
2024/01/17 02:46:57;;;;;;;0.30;0.30;;;1.30;90.00;;;;;;10454567;28;20213;-79
2024/01/17 02:52:00;;;;;;;0.30;0.30;;;1.40;89.90;;;;;;10468820;28;20201;-79
2024/01/17 02:57:04;;;;;;;0.37;0.37;;;1.40;90.00;;;;;;10466193;28;20204;-80
2024/01/17 03:02:06;;;;;;;0.40;0.40;;;1.50;90.40;;;;;;10464186;28;20695;-78
2024/01/17 03:07:08;;;;;;;0.30;0.30;;;1.50;90.60;;;;;;10456443;28;20590;-78
2024/01/17 03:12:12;;;;;;;0.40;0.40;;;1.60;90.80;;;;;;10455141;28;20263;-79
2024/01/17 03:17:16;;;;;;;0.40;0.40;;;1.60;91.10;;;;;;10457390;28;20616;-79
2024/01/17 03:22:18;;;;;;;0.50;0.50;;;1.60;91.30;;;;;;10462072;28;20290;-79
2024/01/17 03:27:22;;;;;;;0.30;0.30;;;1.60;91.50;;;;;;10459795;28;20222;-78
2024/01/17 03:32:24;;;;;;;0.40;0.40;;;1.60;91.60;;;;;;10456093;28;20221;-77
2024/01/17 03:37:27;;;;;;;0.43;0.43;;;1.70;91.90;;;;;;10455974;28;20197;-78
2024/01/17 03:42:30;;;;;;;0.40;0.40;;;1.70;92.00;;;;;;10444815;28;20228;-79
2024/01/17 03:47:33;;;;;;;0.40;0.40;;;1.70;92.30;;;;;;10453841;28;20271;-78
2024/01/17 03:52:35;;;;;;;0.40;0.40;;;1.70;92.50;;;;;;10456500;28;20531;-77
2024/01/17 03:57:39;;;;;;;0.40;0.40;;;1.70;92.70;;;;;;10455180;28;20198;-79
2024/01/17 04:02:41;;;;;;;0.50;0.50;;;1.70;93.00;;;;;;10454780;28;20639;-79
2024/01/17 04:07:43;;;;;;;0.70;0.70;;;1.70;93.10;;;;;;10454838;28;20224;-78
2024/01/17 04:12:47;;;;;;;0.70;0.70;;;1.80;93.30;;;;;;10455826;28;20224;-78
2024/01/17 04:17:49;;;;;;;0.60;0.60;;;1.80;93.60;;;;;;10456294;28;20204;-79
2024/01/17 04:22:52;;;;;;;0.70;0.70;;;1.90;94.00;;;;;;10458731;28;20209;-79
2024/01/17 04:27:55;;;;;;;0.70;0.70;;;1.90;94.50;;;;;;10462151;28;20229;-77
2024/01/17 04:32:58;;;;;;;1.00;1.00;;;1.80;94.80;;;;;;10464929;28;20228;-79
2024/01/17 04:38:00;;;;;;;0.80;0.80;;;1.90;95.40;;;;;;10459676;28;20194;-79
2024/01/17 04:43:04;;;;;;;1.10;1.10;;;1.90;95.70;;;;;;10465821;28;20221;-79
2024/01/17 04:48:07;;;;;;;1.00;1.00;;;2.00;96.00;;;;;;10469794;28;20209;-79
2024/01/17 04:53:10;;;;;;;1.23;1.23;;;2.00;96.30;;;;;;10466991;28;20229;-77
2024/01/17 04:58:13;;;;;;;1.20;1.20;;;2.00;96.40;;;;;;10462407;28;20587;-77
2024/01/17 05:08:26;;;;;;;1.10;1.10;;;2.10;97.00;;;;;;10388292;28;20214;-79
2024/01/17 05:13:30;;;;;;;0.80;0.80;;;2.20;97.10;;;;;;10356793;28;20203;-78
2024/01/17 05:18:32;;;;;;;1.10;1.10;;;2.20;97.30;;;;;;10381981;28;20198;-80
2024/01/17 05:23:35;;;;;;;0.80;0.80;;;2.20;97.50;;;;;;10395601;28;20219;-81
2024/01/17 05:28:38;;;;;;;1.00;1.00;;;2.30;97.40;;;;;;10357624;28;20219;-79
2024/01/17 05:33:41;;;;;;;0.87;0.87;;;2.30;97.40;;;;;;10391252;28;20280;-80
2024/01/17 05:38:43;;;;;;;0.90;0.90;;;2.40;97.50;;;;;;10359106;28;20861;-81
2024/01/17 05:43:47;;;;;;;0.87;0.87;;;2.40;97.50;;;;;;10375048;28;20265;-80
2024/01/17 05:48:49;;;;;;;0.90;0.90;;;2.40;97.60;;;;;;10367853;28;20700;-80
2024/01/17 05:53:51;;;;;;;0.80;0.80;;;2.50;97.60;;;;;;10372072;28;20233;-78
2024/01/17 05:58:55;;;;;;;0.80;0.80;;;2.50;97.70;;;;;;10387595;28;20680;-82
2024/01/17 06:03:57;;;;;;;0.73;0.73;;;2.50;97.80;;;;;;10354312;28;20259;-78
2024/01/17 06:09:00;;;;;;;0.80;0.80;;;2.60;97.90;;;;;;10344992;28;20274;-82
2024/01/17 06:14:03;;;;;;;0.90;0.90;;;2.60;97.90;;;;;;10379057;28;20608;-81
2024/01/17 06:19:06;;;;;;;0.80;0.80;;;2.60;98.00;;;;;;10371046;28;20187;-81
2024/01/17 06:24:08;;;;;;;0.83;0.83;;;2.60;98.10;;;;;;10372213;28;20272;-82
2024/01/17 06:29:12;;;;;;;0.63;0.63;;;2.60;98.30;;;;;;10346560;28;20223;-81
2024/01/17 06:34:14;;;;;;;0.80;0.80;;;2.70;98.40;;;;;;10363462;28;20210;-81
2024/01/17 06:39:17;;;;;;;0.60;0.60;;;2.60;98.50;;;;;;10374616;28;20199;-80
2024/01/17 06:44:21;;;;;;;0.70;0.70;;;2.70;98.60;;;;;;10369466;28;20762;-80
2024/01/17 06:49:24;;;;;;;0.70;0.70;;;2.70;98.70;;;;;;10369765;28;20206;-80
2024/01/17 06:54:26;;;;;;;0.70;0.70;;;2.70;98.70;;;;;;10367344;28;20226;-79
2024/01/17 06:59:30;;;;;;;0.50;0.50;;;2.70;98.80;;;;;;10368598;28;20203;-79
2024/01/17 07:04:32;;;;;;;0.60;0.60;;;2.80;98.90;;;;;;10368644;28;20265;-80
2024/01/17 07:09:34;;;;;;;0.60;0.60;;;2.80;99.00;;;;;;10342745;28;20227;-79
2024/01/17 07:14:38;;;;;;;0.60;0.60;;;2.90;99.10;;;;;;10354333;28;20640;-80
2024/01/17 07:19:40;;;;;;;0.67;0.67;;;2.90;99.10;;;;;;10342169;28;20530;-78
2024/01/17 07:24:45;;;;;;;0.50;0.50;;;3.00;99.30;;;;;;10368505;28;20225;-80
2024/01/17 07:29:48;;;;;;;0.40;0.40;;;3.00;99.30;;;;;;10369066;28;20746;-82
2024/01/17 07:34:51;;;;;;;0.30;0.30;;;3.10;99.50;;;;;;10346052;28;20681;-79
2024/01/17 07:39:53;;;;;;;0.70;0.70;;;3.10;99.50;;;;;;10343720;28;20203;-79
2024/01/17 07:44:57;;;;;;;0.40;0.40;;;3.10;99.60;;;;;;10352409;28;20214;-79
2024/01/17 07:50:00;;;;;;;0.70;0.70;;;3.10;99.60;;;;;;10366548;28;20611;-82
2024/01/17 07:55:03;;;;;;;0.70;0.70;;;3.20;99.80;;;;;;10377476;28;20634;-80
2024/01/17 08:00:08;;;;;;;1.10;1.10;;;3.20;99.90;;;;;;10359925;28;20257;-78
2024/01/17 08:05:17;;;;;;;0.60;0.60;;;3.20;99.90;;;;;;10358191;28;20243;-80
2024/01/17 08:10:19;;;;;;;0.90;0.90;;;3.20;99.90;;;;;;10356425;28;20675;-82
2024/01/17 08:15:23;;;;;;;0.50;0.50;;;3.20;99.90;;;;;;10375883;28;20215;-80
2024/01/17 08:20:25;;;;;;;0.80;0.80;;;3.30;99.90;;;;;;10383364;28;20228;-81
2024/01/17 08:25:28;;;;;;;0.90;0.90;;;3.30;99.90;;;;;;10375903;28;20229;-80
2024/01/17 08:30:31;;;;;;;1.00;1.00;;;3.30;99.90;;;;;;10363795;28;20202;-79
2024/01/17 08:35:34;;;;;;;1.23;1.23;;;3.40;99.90;;;;;;10373502;28;20257;-80
2024/01/17 08:40:36;;;;;;;1.30;1.30;;;3.40;99.90;;;;;;10369228;28;20194;-79
2024/01/17 08:45:40;;;;;;;1.37;1.37;;;3.40;99.90;;;;;;10379350;28;20227;-82
2024/01/17 08:50:42;;;;;;;1.10;1.10;;;3.50;99.90;;;;;;10384131;28;20670;-81
2024/01/17 08:55:45;;;;;;;1.30;1.30;;;3.50;99.90;;;;;;10343371;28;20219;-78
2024/01/17 09:00:49;;;;;;;1.30;1.30;;;3.50;99.90;;;;;;10348407;28;20195;-80
2024/01/17 09:05:51;;;;;;;1.20;1.20;;;3.50;99.90;;;;;;10355395;28;20223;-79
2024/01/17 09:10:54;;;;;;;1.17;1.17;;;3.60;99.90;;;;;;10373628;28;20210;-80
2024/01/17 09:15:57;;;;;;;1.30;1.30;;;3.60;99.90;;;;;;10378392;28;20219;-79
2024/01/17 09:21:00;;;;;;;1.10;1.10;;;3.70;99.90;;;;;;10374120;28;20198;-80
2024/01/17 09:26:02;;;;;;;1.23;1.23;;;3.70;99.90;;;;;;10355201;28;20227;-78
2024/01/17 09:31:09;;;;;;;1.37;1.37;;;3.70;99.90;;;;;;10372166;28;20199;-80
2024/01/17 09:36:11;;;;;;;1.10;1.10;;;3.80;99.90;;;;;;10363909;28;20227;-81
2024/01/17 09:41:14;;;;;;;1.70;1.70;;;3.80;99.90;;;;;;10381311;28;20206;-78
2024/01/17 09:46:18;;;;;;;1.00;1.00;;;3.80;99.90;;;;;;10366711;28;20641;-80
2024/01/17 09:51:26;;;;;;;1.60;1.60;;;3.90;99.90;;;;;;10371567;28;20618;-80
2024/01/17 09:56:30;;;;;;;1.53;1.53;;;3.90;99.90;;;;;;10366723;28;20210;-79
2024/01/17 10:01:37;;;;;;;1.90;1.90;;;4.00;99.90;;;;;;10376120;28;20217;-80
2024/01/17 10:06:43;;;;;;;1.67;1.67;;;4.00;99.90;;;;;;10368018;28;20222;-80
2024/01/17 10:11:45;;;;;;;1.80;1.80;;;4.10;99.90;;;;;;10359402;28;20356;-78
2024/01/17 10:16:49;;;;;;;0.43;0.43;;;4.10;99.90;;;;;;10386095;28;20222;-79
2024/01/17 10:21:52;;;;;;;1.90;1.90;;;4.10;99.90;;;;;;10360612;28;20272;-79
2024/01/17 10:26:55;;;;;;;1.00;1.00;;;4.10;99.90;;;;;;10370472;28;20353;-77
2024/01/17 10:32:00;;;;;;;2.13;2.13;;;4.20;99.90;;;;;;10364393;28;20626;-77
2024/01/17 10:37:04;;;;;;;3.07;3.07;;;4.20;99.90;;;;;;10368214;28;20238;-80
2024/01/17 10:42:07;;;;;;;2.80;2.80;;;4.20;99.90;;;;;;10365159;28;20213;-78
2024/01/17 10:47:11;;;;;;;2.87;2.87;;;4.30;99.90;;;;;;10370749;28;20215;-80
2024/01/17 10:52:16;;;;;;;4.00;4.00;;;4.30;99.90;;;;;;10372546;28;20198;-77
2024/01/17 10:57:20;;;;;;;4.70;4.70;;;4.30;99.90;;;;;;10368656;28;20223;-79
2024/01/17 11:02:24;;;;;;;5.07;5.07;;;4.30;99.90;;;;;;10350445;28;20702;-78
2024/01/17 11:07:27;;;;;;;4.00;4.00;;;4.30;99.90;;;;;;10370364;28;20296;-81
2024/01/17 11:12:32;;;;;;;5.23;5.23;;;4.30;99.90;;;;;;10397553;28;20718;-81
2024/01/17 11:17:37;;;;;;;4.33;4.33;;;4.40;99.90;;;;;;10344678;28;20277;-81
2024/01/17 11:22:40;;;;;;;3.50;3.50;;;4.40;99.90;;;;;;10386645;28;20793;-82
2024/01/17 11:27:51;;;;;;;4.90;4.90;;;4.40;99.90;;;;;;10353701;28;20224;-79
2024/01/17 11:33:03;;;;;;;5.33;5.33;;;4.40;99.90;;;;;;10349936;28;20642;-81
2024/01/17 11:38:06;;;;;;;4.33;4.33;;;4.40;99.90;;;;;;10366980;28;20218;-80
2024/01/17 11:43:09;;;;;;;4.90;4.90;;;4.40;99.90;;;;;;10349871;28;20213;-81
2024/01/17 11:48:25;;;;;;;3.63;3.63;;;4.40;99.90;;;;;;10382846;28;20222;-81
2024/01/17 11:53:28;;;;;;;4.40;4.40;;;4.50;99.90;;;;;;10393363;28;20478;-79
2024/01/17 11:58:40;;;;;;;5.13;5.13;;;4.60;99.90;;;;;;10351127;28;20187;-80
2024/01/17 12:03:44;;;;;;;4.77;4.77;;;4.70;99.90;;;;;;10371488;28;20214;-78
2024/01/17 12:08:46;;;;;;;4.90;4.90;;;4.90;99.90;;;;;;10370519;28;20272;-80
2024/01/17 12:13:52;;;;;;;5.50;5.50;;;5.00;99.90;;;;;;10378819;28;20790;-80
2024/01/17 12:18:59;;;;;;;5.30;5.30;;;5.20;99.90;;;;;;10345528;28;20226;-81
2024/01/17 12:24:01;;;;;;;4.20;4.20;;;5.30;99.90;;;;;;10346969;28;20790;-81
2024/01/17 12:29:08;;;;;;;5.10;5.10;;;5.40;99.90;;;;;;10358726;28;20227;-82
2024/01/17 12:34:12;;;;;;;5.27;5.27;;;5.40;99.90;;;;;;10353602;28;20571;-82
2024/01/17 12:39:14;;;;;;;3.07;3.07;;;5.40;99.90;;;;;;10361617;28;20199;-82
2024/01/17 12:44:17;;;;;;;3.50;3.50;;;5.30;99.90;;;;;;10360825;28;20244;-83
2024/01/17 12:49:21;;;;;;;2.70;2.70;;;5.40;99.90;;;;;;10384790;28;20218;-80
2024/01/17 12:54:24;;;;;;;5.20;5.20;;;5.40;99.90;;;;;;10397527;28;20650;-82
2024/01/17 12:59:26;;;;;;;2.60;2.60;;;5.50;99.90;;;;;;10398874;28;20214;-80
2024/01/17 13:04:30;;;;;;;5.00;5.00;;;5.60;99.90;;;;;;10363056;28;20234;-81
2024/01/17 13:09:51;;;;;;;5.00;5.00;;;5.70;99.90;;;;;;10384259;28;20218;-82
2024/01/17 13:15:15;;;;;;;6.13;6.13;;;5.80;99.90;;;;;;10364509;28;20214;-79
2024/01/17 13:20:38;;;;;;;5.40;5.40;;;6.00;99.90;;;;;;10387983;28;20189;-78
2024/01/17 13:25:59;;;;;;;4.53;4.53;;;6.10;99.90;;;;;;10386565;28;20331;-82
2024/01/17 13:31:19;;;;;;;5.10;5.10;;;6.30;99.90;;;;;;10371602;28;20194;-79
2024/01/17 13:36:41;;;;;;;2.80;2.80;;;6.40;99.90;;;;;;10360471;28;20248;-79
2024/01/17 13:42:02;;;;;;;5.20;5.20;;;6.60;99.90;;;;;;10346574;28;20199;-80
2024/01/17 13:47:22;;;;;;;5.10;5.10;;;6.90;99.90;;;;;;10371602;28;20226;-79
2024/01/17 13:52:50;;;;;;;4.53;4.53;;;7.10;99.90;;;;;;10377312;28;20202;-82
2024/01/17 13:58:11;;;;;;;3.10;3.10;;;7.30;99.90;;;;;;10339251;28;20219;-81
2024/01/17 14:03:33;;;;;;;4.53;4.53;;;7.30;99.90;;;;;;10366067;28;20198;-81
2024/01/17 14:08:37;;;;;;;5.40;5.40;;;7.40;99.90;;;;;;10393152;28;20225;-82
2024/01/17 14:13:39;;;;;;;4.00;4.00;;;7.40;99.90;;;;;;10340287;28;20229;-81
2024/01/17 14:18:42;;;;;;;1.53;1.53;;;7.50;99.90;;;;;;10338748;28;20278;-81
2024/01/17 14:23:46;;;;;;;4.50;4.50;;;7.50;99.90;;;;;;10337023;28;20285;-81
2024/01/17 14:28:49;;;;;;;4.03;4.03;;;7.50;99.90;;;;;;10374472;28;20230;-81
2024/01/17 14:33:51;;;;;;;5.33;5.33;;;7.50;99.90;;;;;;10388827;28;20763;-82
2024/01/17 14:38:55;;;;;;;4.00;4.00;;;7.60;99.90;;;;;;10385390;28;20206;-83
2024/01/17 14:43:57;;;;;;;4.50;4.50;;;7.80;99.90;;;;;;10337040;28;20632;-81
2024/01/17 14:49:00;;;;;;;4.60;4.60;;;8.00;99.90;;;;;;10374715;28;20229;-82
2024/01/17 14:54:04;;;;;;;3.57;3.57;;;8.00;99.90;;;;;;10375465;28;20566;-83
2024/01/17 14:59:08;;;;;;;1.60;1.60;;;8.10;99.90;;;;;;10389350;28;20203;-80
2024/01/17 15:04:10;;;;;;;3.83;3.83;;;8.20;99.90;;;;;;10375569;28;20626;-82
2024/01/17 15:09:16;;;;;;;2.80;2.80;;;8.20;99.90;;;;;;10368213;28;20230;-83
2024/01/17 15:14:20;;;;;;;3.70;3.70;;;8.10;99.90;;;;;;10368047;28;20237;-82
2024/01/17 15:19:23;;;;;;;2.97;2.97;;;8.00;99.90;;;;;;10330528;28;20608;-83
2024/01/17 15:24:26;;;;;;;4.23;4.23;;;7.90;99.90;;;;;;10335346;28;20277;-82
2024/01/17 15:29:29;;;;;;;4.27;4.27;;;7.80;99.90;;;;;;10336148;28;20277;-82
2024/01/17 15:34:31;;;;;;;3.93;3.93;;;7.80;99.90;;;;;;10373391;28;20582;-82
2024/01/17 15:39:36;;;;;;;3.17;3.17;;;7.60;99.90;;;;;;10371097;28;20595;-80
2024/01/17 15:44:38;;;;;;;3.40;3.40;;;7.40;99.90;;;;;;10369602;28;20210;-82
2024/01/17 15:49:40;;;;;;;3.10;3.10;;;7.40;99.90;;;;;;10372381;28;20225;-80
2024/01/17 15:54:44;;;;;;;2.00;2.00;;;7.30;99.90;;;;;;10333248;28;20223;-80
2024/01/17 15:59:47;;;;;;;2.70;2.70;;;7.20;99.90;;;;;;10384110;28;20210;-82
2024/01/17 16:04:49;;;;;;;2.33;2.33;;;7.10;99.90;;;;;;10370347;28;20230;-81
2024/01/17 16:09:53;;;;;;;2.70;2.70;;;6.90;99.90;;;;;;10366730;28;20226;-80
2024/01/17 16:14:55;;;;;;;3.53;3.53;;;7.00;99.90;;;;;;10368498;28;20288;-81
2024/01/17 16:19:59;;;;;;;4.00;4.00;;;7.00;99.90;;;;;;10371196;28;20187;-80
2024/01/17 16:25:05;;;;;;;3.53;3.53;;;7.20;99.90;;;;;;10347705;28;20210;-81
2024/01/17 16:30:09;;;;;;;1.37;1.37;;;7.30;99.90;;;;;;10370620;28;20218;-81
2024/01/17 16:35:12;;;;;;;1.53;1.53;;;7.30;99.90;;;;;;10343618;28;20218;-80
2024/01/17 16:40:16;;;;;;;1.30;1.30;;;7.50;99.90;;;;;;10381296;28;20195;-81
2024/01/17 16:45:18;;;;;;;3.70;3.70;;;7.90;99.90;;;;;;10379312;28;20699;-82
2024/01/17 16:50:21;;;;;;;3.50;3.50;;;8.40;99.90;;;;;;10399491;28;20820;-79
2024/01/17 16:55:25;;;;;;;3.00;3.00;;;8.80;99.90;;;;;;10374719;28;20233;-81
2024/01/17 17:00:27;;;;;;;2.60;2.60;;;9.20;99.90;;;;;;10372229;28;20210;-83
2024/01/17 17:05:29;;;;;;;2.67;2.67;;;9.40;99.90;;;;;;10408441;22;20269;-81
2024/01/17 17:10:33;;;;;;;2.90;2.90;;;9.60;99.90;;;;;;10422897;28;20222;-78
2024/01/17 17:15:36;;;;;;;2.20;2.20;;;9.80;99.90;;;;;;10410426;28;20269;-79
2024/01/17 17:20:39;;;;;;;2.13;2.13;;;9.90;99.90;;;;;;10421421;28;20197;-75
2024/01/17 17:25:43;;;;;;;2.03;2.03;;;10.00;99.90;;;;;;10417117;28;20271;-77
2024/01/17 17:30:46;;;;;;;1.80;1.80;;;10.00;99.90;;;;;;10423984;28;20233;-79
2024/01/17 17:35:49;;;;;;;1.97;1.97;;;10.00;99.90;;;;;;10405267;28;20234;-79
2024/01/17 17:40:52;;;;;;;0.50;0.50;;;9.90;99.90;;;;;;10418742;28;20202;-78
2024/01/17 17:45:55;;;;;;;1.53;1.53;;;9.70;99.90;;;;;;10404372;28;20607;-77
2024/01/17 17:50:58;;;;;;;1.83;1.83;;;9.60;99.90;;;;;;10409547;28;20766;-78
2024/01/17 17:56:02;;;;;;;1.80;1.80;;;9.40;99.90;;;;;;10393577;28;20226;-79
2024/01/17 18:01:05;;;;;;;1.70;1.70;;;9.20;99.90;;;;;;10398591;28;20194;-79
2024/01/17 18:06:07;;;;;;;1.70;1.70;;;9.00;99.90;;;;;;10415504;28;20372;-78
2024/01/17 18:11:12;;;;;;;1.80;1.80;;;8.90;99.90;;;;;;10417510;28;20239;-78
2024/01/17 18:16:16;;;;;;;1.50;1.50;;;8.80;99.90;;;;;;10420182;28;20700;-76
2024/01/17 18:21:19;;;;;;;1.80;1.80;;;8.70;99.90;;;;;;10410217;28;20246;-77
2024/01/17 18:26:23;;;;;;;1.80;1.80;;;8.70;99.90;;;;;;10422512;28;20230;-78
2024/01/17 18:31:25;;;;;;;1.80;1.80;;;8.70;99.90;;;;;;10414009;28;20266;-77
2024/01/17 18:36:28;;;;;;;1.70;1.70;;;8.70;99.90;;;;;;10403640;28;20233;-78
2024/01/17 18:41:32;;;;;;;1.73;1.73;;;8.80;99.90;;;;;;10383955;28;20210;-77
2024/01/17 18:46:34;;;;;;;2.00;2.00;;;9.00;99.90;;;;;;10396359;28;20220;-80
2024/01/17 18:51:36;;;;;;;1.60;1.60;;;9.10;99.90;;;;;;10408710;28;20272;-77
2024/01/17 18:56:40;;;;;;;1.80;1.80;;;9.20;99.90;;;;;;10407661;28;20734;-77
2024/01/17 19:01:43;;;;;;;1.70;1.70;;;9.30;99.90;;;;;;10389973;28;20198;-77
2024/01/17 19:06:45;;;;;;;1.50;1.50;;;9.50;99.90;;;;;;10418970;28;20226;-77
2024/01/17 19:11:49;;;;;;;1.80;1.80;;;9.70;99.90;;;;;;10403850;28;20218;-77
2024/01/17 19:16:51;;;;;;;1.20;1.20;;;9.80;99.90;;;;;;10424065;28;20911;-78
2024/01/17 19:21:54;;;;;;;1.50;1.50;;;9.90;99.90;;;;;;10406326;28;20541;-78
2024/01/17 19:26:58;;;;;;;1.57;1.57;;;10.00;99.90;;;;;;10421363;28;20225;-78
2024/01/17 19:32:01;;;;;;;1.70;1.70;;;10.10;99.90;;;;;;10435981;28;20225;-78
2024/01/17 19:37:04;;;;;;;1.80;1.80;;;10.10;99.90;;;;;;10420964;28;20601;-79
2024/01/17 19:42:10;;;;;;;0.70;0.70;;;10.10;99.90;;;;;;10408012;28;20237;-79
2024/01/17 19:47:13;;;;;;;1.90;1.90;;;10.10;99.90;;;;;;10384430;28;20252;-77
2024/01/17 19:52:15;;;;;;;0.60;0.60;;;10.10;99.90;;;;;;10401746;28;20296;-79
2024/01/17 19:57:19;;;;;;;1.50;1.50;;;10.10;99.90;;;;;;10418199;28;20218;-79
2024/01/17 20:02:22;;;;;;;0.80;0.80;;;10.00;99.90;;;;;;10403110;28;20209;-78
2024/01/17 20:07:24;;;;;;;1.40;1.40;;;10.00;99.90;;;;;;10398672;28;20237;-77
2024/01/17 20:12:28;;;;;;;1.70;1.70;;;10.10;99.90;;;;;;10413054;28;20217;-77
2024/01/17 20:17:30;;;;;;;1.47;1.47;;;10.10;99.90;;;;;;10401324;28;20778;-76
2024/01/17 20:22:33;;;;;;;0.80;0.80;;;10.10;99.90;;;;;;10424917;28;20209;-77
2024/01/17 20:27:37;;;;;;;1.43;1.43;;;10.10;99.90;;;;;;10416121;28;20214;-78
2024/01/17 20:32:39;;;;;;;1.80;1.80;;;10.10;99.90;;;;;;10420704;28;20988;-77
2024/01/17 20:37:41;;;;;;;0.73;0.73;;;10.10;99.90;;;;;;10411749;28;20217;-77
2024/01/17 20:42:46;;;;;;;1.53;1.53;;;10.10;99.90;;;;;;10406200;28;20606;-77
2024/01/17 20:47:49;;;;;;;1.40;1.40;;;10.20;99.90;;;;;;10384022;28;20214;-79
2024/01/17 20:52:51;;;;;;;1.57;1.57;;;10.20;99.90;;;;;;10394811;28;20271;-78
2024/01/17 20:57:55;;;;;;;1.40;1.40;;;10.30;99.90;;;;;;10412184;28;20649;-78
2024/01/17 21:02:58;;;;;;;1.50;1.50;;;10.20;99.90;;;;;;10408128;28;20217;-79
2024/01/17 21:08:01;;;;;;;1.40;1.40;;;10.20;99.90;;;;;;10421107;28;20229;-78
2024/01/17 21:13:05;;;;;;;1.20;1.20;;;10.10;99.90;;;;;;10419648;28;20333;-77
2024/01/17 21:18:07;;;;;;;1.40;1.40;;;9.90;99.90;;;;;;10412172;28;20224;-79
2024/01/17 21:23:16;;;;;;;1.20;1.20;;;9.70;99.90;;;;;;10415315;28;20209;-78
2024/01/17 21:28:19;;;;;;;1.20;1.20;;;9.60;99.90;;;;;;10402531;28;20230;-78
2024/01/17 21:33:22;;;;;;;0.90;0.90;;;9.60;99.90;;;;;;10426844;28;20305;-80
2024/01/17 21:38:25;;;;;;;1.07;1.07;;;9.60;99.90;;;;;;10416637;28;20761;-78
2024/01/17 21:43:29;;;;;;;1.20;1.20;;;9.60;99.90;;;;;;10399456;28;20205;-79
2024/01/17 21:48:31;;;;;;;1.63;1.63;;;9.60;99.90;;;;;;10409466;28;20222;-79
2024/01/17 21:53:34;;;;;;;1.50;1.50;;;9.50;99.90;;;;;;10409314;28;20207;-78
2024/01/17 21:58:37;;;;;;;1.30;1.30;;;9.50;99.90;;;;;;10421637;28;20296;-79
2024/01/17 22:03:40;;;;;;;1.20;1.20;;;9.40;99.90;;;;;;10423157;28;20675;-78
2024/01/17 22:08:42;;;;;;;1.40;1.40;;;9.40;99.90;;;;;;10411576;28;20685;-78
2024/01/17 22:13:46;;;;;;;1.63;1.63;;;9.50;99.90;;;;;;10402991;28;20209;-78
2024/01/17 22:18:49;;;;;;;1.83;1.83;;;9.50;99.90;;;;;;10396740;28;20228;-79
2024/01/17 22:23:51;;;;;;;2.00;2.00;;;9.40;99.90;;;;;;10414096;28;20205;-79
2024/01/17 22:28:55;;;;;;;1.60;1.60;;;9.50;99.90;;;;;;10410031;28;20272;-79
2024/01/17 22:33:58;;;;;;;1.70;1.70;;;9.60;99.90;;;;;;10404857;28;20617;-80
2024/01/17 22:39:00;;;;;;;2.00;2.00;;;9.60;99.90;;;;;;10413232;28;20563;-79
2024/01/17 22:44:04;;;;;;;1.80;1.80;;;9.70;99.90;;;;;;10407534;28;20664;-78
2024/01/17 22:49:07;;;;;;;1.77;1.77;;;9.60;99.90;;;;;;10399600;28;20210;-78
2024/01/17 22:54:09;;;;;;;1.70;1.70;;;9.70;99.90;;;;;;10409543;28;20660;-79
2024/01/17 22:59:13;;;;;;;1.40;1.40;;;9.70;99.90;;;;;;10394779;28;20213;-79
2024/01/17 23:04:15;;;;;;;1.70;1.70;;;9.80;99.90;;;;;;10392355;28;20236;-79
2024/01/17 23:09:17;;;;;;;2.13;2.13;;;9.80;99.90;;;;;;10389694;28;20233;-80
2024/01/17 23:14:21;;;;;;;1.57;1.57;;;9.70;99.90;;;;;;10412812;28;20218;-80
2024/01/17 23:19:23;;;;;;;1.93;1.93;;;9.70;99.90;;;;;;10387426;28;20205;-81
2024/01/17 23:24:26;;;;;;;1.33;1.33;;;9.80;99.90;;;;;;10399138;28;20715;-81
2024/01/17 23:29:30;;;;;;;1.70;1.70;;;9.80;99.90;;;;;;10422777;28;20225;-81
2024/01/17 23:34:32;;;;;;;1.50;1.50;;;9.90;99.90;;;;;;10412451;28;20594;-77
2024/01/17 23:39:34;;;;;;;1.90;1.90;;;9.90;99.90;;;;;;10424609;28;20195;-79
2024/01/17 23:44:38;;;;;;;1.33;1.33;;;9.90;99.90;;;;;;10403468;28;20718;-80
2024/01/17 23:49:40;;;;;;;1.60;1.60;;;9.90;99.90;;;;;;10408525;28;20675;-79
2024/01/17 23:54:43;;;;;;;1.80;1.80;;;10.00;99.90;;;;;;10415388;28;20271;-80
2024/01/17 23:59:47;;;;;;;1.50;1.50;;;10.00;99.90;;;;;;10395955;28;20199;-79
